Time;durP1;ratioP1;P1;durP2;ratioP2;P2;SDS_P1;SDS_P2;PMS_P1;PMS_P2;Temp;Humidity;BMP_temperature;BMP_pressure;BME280_temperature;BME280_humidity;BME280_pressure;Samples;Min_cycle;Max_cycle;Signal;HPM_P1;HPM_P2
2022/04/07 00:00:59;;;;;;;;;18.33;12.33;;;;;;;;5140657;27;10341;-75
2022/04/07 00:03:25;;;;;;;;;14.33;12.67;;;;;;;;5140616;27;11435;-74
2022/04/07 00:05:51;;;;;;;;;13.00;12.00;;;;;;;;5139484;27;11712;-74
2022/04/07 00:08:16;;;;;;;;;14.33;11.00;;;;;;;;5141704;27;11386;-74
2022/04/07 00:10:41;;;;;;;;;15.00;10.33;;;;;;;;5141668;27;10454;-74
2022/04/07 00:13:07;;;;;;;;;14.67;12.00;;;;;;;;5141325;27;12732;-74
2022/04/07 00:15:32;;;;;;;;;13.00;11.00;;;;;;;;5141419;27;11370;-74
2022/04/07 00:18:00;;;;;;;;;17.67;13.00;;;;;;;;5141201;27;10415;-75
2022/04/07 00:20:29;;;;;;;;;13.67;13.67;;;;;;;;5141548;27;10411;-74
2022/04/07 00:22:55;;;;;;;;;11.00;11.00;;;;;;;;5139174;27;11833;-74
2022/04/07 00:25:20;;;;;;;;;13.33;11.33;;;;;;;;5141012;27;11597;-74
2022/04/07 00:27:46;;;;;;;;;13.00;11.33;;;;;;;;5141385;27;11363;-73
2022/04/07 00:30:13;;;;;;;;;11.67;11.67;;;;;;;;5141354;27;8838;-75
2022/04/07 00:32:44;;;;;;;;;14.50;9.75;;;;;;;;5140867;27;12487;-77
2022/04/07 00:35:09;;;;;;;;;13.50;9.00;;;;;;;;5140105;27;22129;-78
2022/04/07 00:37:35;;;;;;;;;12.00;9.00;;;;;;;;5138176;27;11529;-77
2022/04/07 00:40:00;;;;;;;;;19.00;12.00;;;;;;;;5140797;27;8827;-73
2022/04/07 00:42:26;;;;;;;;;10.25;8.00;;;;;;;;5140109;27;22777;-72
2022/04/07 00:44:51;;;;;;;;;11.00;8.33;;;;;;;;5140573;27;21661;-73
2022/04/07 00:47:18;;;;;;;;;7.00;6.00;;;;;;;;5140758;27;10284;-73
2022/04/07 00:49:43;;;;;;;;;13.00;11.00;;;;;;;;5140081;27;23265;-72
2022/04/07 00:52:09;;;;;;;;;11.25;8.75;;;;;;;;5139852;27;22241;-73
2022/04/07 00:54:35;;;;;;;;;6.00;6.00;;;;;;;;5139904;27;21882;-73
2022/04/07 00:57:00;;;;;;;;;9.50;9.50;;;;;;;;5140100;27;22768;-73
2022/04/07 00:59:27;;;;;;;;;11.00;8.50;;;;;;;;5140732;27;11655;-73
2022/04/07 01:01:52;;;;;;;;;9.00;8.00;;;;;;;;5139889;27;21752;-73
2022/04/07 01:04:17;;;;;;;;;10.33;6.67;;;;;;;;5139887;27;21278;-73
2022/04/07 01:06:43;;;;;;;;;6.00;6.00;;;;;;;;5139787;27;21631;-72
2022/04/07 01:09:09;;;;;;;;;8.00;8.00;;;;;;;;5139608;27;22915;-72
2022/04/07 01:11:35;;;;;;;;;9.00;9.00;;;;;;;;5139739;27;8873;-73
2022/04/07 01:14:01;;;;;;;;;9.00;8.00;;;;;;;;5140653;27;11427;-72
2022/04/07 01:16:27;;;;;;;;;8.50;8.00;;;;;;;;5140073;27;8772;-73
2022/04/07 01:18:52;;;;;;;;;9.67;6.67;;;;;;;;5138564;27;11788;-74
2022/04/07 01:21:18;;;;;;;;;11.33;9.00;;;;;;;;5139950;27;11538;-73
2022/04/07 01:24:03;;;;;;;;;9.00;8.67;;;;;;;;5139827;27;22420;-73
2022/04/07 01:26:32;;;;;;;;;11.67;10.33;;;;;;;;5138916;27;21579;-73
2022/04/07 01:29:01;;;;;;;;;9.00;8.00;;;;;;;;5139395;27;22623;-72
2022/04/07 01:31:27;;;;;;;;;11.00;11.00;;;;;;;;5139640;27;22272;-74
2022/04/07 01:33:52;;;;;;;;;12.33;9.67;;;;;;;;5139125;27;22966;-73
2022/04/07 01:36:18;;;;;;;;;11.75;8.75;;;;;;;;5139296;27;21615;-73
2022/04/07 01:38:44;;;;;;;;;13.00;11.33;;;;;;;;5137925;27;12362;-74
2022/04/07 01:41:09;;;;;;;;;11.67;11.67;;;;;;;;5139426;27;21584;-72
2022/04/07 01:43:35;;;;;;;;;16.00;12.33;;;;;;;;5140347;27;11474;-73
2022/04/07 01:46:01;;;;;;;;;15.33;13.00;;;;;;;;5140021;27;11634;-73
2022/04/07 01:48:28;;;;;;;;;15.33;13.00;;;;;;;;5139678;27;11450;-72
2022/04/07 01:50:53;;;;;;;;;13.00;12.33;;;;;;;;5139648;27;12258;-73
2022/04/07 01:53:19;;;;;;;;;12.00;11.00;;;;;;;;5139224;27;11378;-73
2022/04/07 01:55:45;;;;;;;;;14.33;11.33;;;;;;;;5140071;27;11949;-74
2022/04/07 01:58:10;;;;;;;;;16.33;11.33;;;;;;;;5138607;27;13478;-72
2022/04/07 02:00:36;;;;;;;;;9.00;9.00;;;;;;;;5139772;27;8769;-73
2022/04/07 02:03:04;;;;;;;;;13.67;12.67;;;;;;;;5139152;27;22199;-73
2022/04/07 02:05:29;;;;;;;;;15.00;11.33;;;;;;;;5139748;27;23588;-73
2022/04/07 02:07:54;;;;;;;;;11.00;9.67;;;;;;;;5140011;27;11955;-73
2022/04/07 02:10:21;;;;;;;;;15.00;12.67;;;;;;;;5139559;27;22006;-72
2022/04/07 02:12:46;;;;;;;;;15.00;12.00;;;;;;;;5137479;27;23415;-73
2022/04/07 02:15:12;;;;;;;;;12.33;8.33;;;;;;;;5139316;27;11593;-72
2022/04/07 02:17:37;;;;;;;;;11.67;11.67;;;;;;;;5139141;27;21358;-72
2022/04/07 02:20:05;;;;;;;;;12.67;10.33;;;;;;;;5137587;27;23901;-74
2022/04/07 02:22:30;;;;;;;;;11.67;9.00;;;;;;;;5139993;27;11517;-73
2022/04/07 02:24:56;;;;;;;;;12.00;9.00;;;;;;;;5139386;27;22656;-72
2022/04/07 02:27:21;;;;;;;;;12.67;11.67;;;;;;;;5139591;27;8896;-72
2022/04/07 02:29:47;;;;;;;;;11.67;5.00;;;;;;;;5142301;27;21402;-72
2022/04/07 02:32:12;;;;;;;;;17.33;14.67;;;;;;;;5142368;27;21326;-73
2022/04/07 02:34:38;;;;;;;;;14.00;12.67;;;;;;;;5142165;27;21417;-73
2022/04/07 02:37:03;;;;;;;;;12.00;9.00;;;;;;;;5142565;27;10837;-73
2022/04/07 02:39:29;;;;;;;;;13.67;12.33;;;;;;;;5143044;27;21935;-73
2022/04/07 02:41:54;;;;;;;;;15.00;10.33;;;;;;;;5142252;27;21668;-73
2022/04/07 02:44:20;;;;;;;;;9.00;8.00;;;;;;;;5142895;27;10604;-73
2022/04/07 02:46:45;;;;;;;;;12.33;11.00;;;;;;;;5142550;27;22862;-74
2022/04/07 02:49:10;;;;;;;;;11.00;11.00;;;;;;;;5142162;27;22543;-72
2022/04/07 02:51:36;;;;;;;;;15.67;13.00;;;;;;;;5142691;27;9355;-73
2022/04/07 02:54:01;;;;;;;;;9.67;9.00;;;;;;;;5142594;27;10335;-73
2022/04/07 02:56:28;;;;;;;;;13.00;12.00;;;;;;;;5141704;27;22633;-73
2022/04/07 02:58:53;;;;;;;;;13.00;12.00;;;;;;;;5142057;27;22526;-72
2022/04/07 03:01:19;;;;;;;;;13.67;11.67;;;;;;;;5142702;27;11504;-73
2022/04/07 03:03:44;;;;;;;;;15.00;9.67;;;;;;;;5142806;27;10401;-73
2022/04/07 03:06:09;;;;;;;;;15.33;11.67;;;;;;;;5142106;27;21385;-73
2022/04/07 03:08:35;;;;;;;;;16.33;12.33;;;;;;;;5142032;27;21428;-73
2022/04/07 03:11:05;;;;;;;;;13.67;9.00;;;;;;;;5142190;27;11957;-73
2022/04/07 03:13:31;;;;;;;;;11.33;8.33;;;;;;;;5141952;27;22554;-74
2022/04/07 03:15:57;;;;;;;;;12.33;11.00;;;;;;;;5141837;27;11513;-73
2022/04/07 03:18:22;;;;;;;;;13.67;11.00;;;;;;;;5141128;27;21830;-73
2022/04/07 03:20:47;;;;;;;;;17.67;11.33;;;;;;;;5141781;27;9040;-73
2022/04/07 03:23:13;;;;;;;;;9.67;9.67;;;;;;;;5142440;27;11613;-73
2022/04/07 03:25:38;;;;;;;;;15.00;13.00;;;;;;;;5141956;27;23467;-73
2022/04/07 03:28:04;;;;;;;;;8.33;8.33;;;;;;;;5141861;27;23462;-74
2022/04/07 03:30:30;;;;;;;;;12.33;12.00;;;;;;;;5141813;27;22592;-73
2022/04/07 03:32:55;;;;;;;;;13.33;11.00;;;;;;;;5139389;27;22627;-72
2022/04/07 03:35:20;;;;;;;;;14.00;12.00;;;;;;;;5141423;27;8776;-72
2022/04/07 03:37:46;;;;;;;;;14.33;12.67;;;;;;;;5141661;27;10871;-73
2022/04/07 03:40:11;;;;;;;;;13.00;9.00;;;;;;;;5141042;27;8887;-72
2022/04/07 03:42:37;;;;;;;;;12.00;11.00;;;;;;;;5140592;27;22990;-73
2022/04/07 03:45:02;;;;;;;;;12.33;11.00;;;;;;;;5140985;27;22625;-73
2022/04/07 03:47:29;;;;;;;;;8.67;8.67;;;;;;;;5142255;27;8792;-73
2022/04/07 03:49:54;;;;;;;;;11.33;10.33;;;;;;;;5141128;27;22362;-73
2022/04/07 03:52:20;;;;;;;;;15.67;11.33;;;;;;;;5141252;27;22225;-73
2022/04/07 03:54:45;;;;;;;;;11.00;9.00;;;;;;;;5141384;27;10344;-75
2022/04/07 03:57:10;;;;;;;;;12.33;9.00;;;;;;;;5141193;27;21383;-72
2022/04/07 03:59:38;;;;;;;;;15.67;11.67;;;;;;;;5141265;27;8869;-72
2022/04/07 04:02:05;;;;;;;;;15.00;10.33;;;;;;;;5141657;27;21529;-73
2022/04/07 04:04:30;;;;;;;;;14.33;13.00;;;;;;;;5139421;27;13513;-71
2022/04/07 04:06:55;;;;;;;;;13.33;11.00;;;;;;;;5141285;27;11574;-72
2022/04/07 04:09:21;;;;;;;;;14.33;11.67;;;;;;;;5141388;27;9007;-72
2022/04/07 04:11:46;;;;;;;;;13.33;11.67;;;;;;;;5138791;27;13544;-73
2022/04/07 04:14:11;;;;;;;;;9.67;9.00;;;;;;;;5141336;27;8816;-73
2022/04/07 04:16:36;;;;;;;;;13.67;11.00;;;;;;;;5140257;27;23913;-73
2022/04/07 04:19:02;;;;;;;;;13.00;11.00;;;;;;;;5140974;27;23669;-74
2022/04/07 04:21:27;;;;;;;;;15.00;12.33;;;;;;;;5129741;27;8814;-72
2022/04/07 04:23:52;;;;;;;;;13.33;12.67;;;;;;;;5128973;27;11904;-73
2022/04/07 04:26:18;;;;;;;;;8.33;8.33;;;;;;;;5128029;27;11907;-73
2022/04/07 04:28:43;;;;;;;;;15.33;9.00;;;;;;;;5127923;27;24388;-72
2022/04/07 04:31:08;;;;;;;;;17.67;14.33;;;;;;;;5129133;27;22772;-73
2022/04/07 04:33:34;;;;;;;;;16.67;12.00;;;;;;;;5127844;27;21544;-74
2022/04/07 04:35:59;;;;;;;;;11.67;11.00;;;;;;;;5131003;27;13075;-73
2022/04/07 04:38:24;;;;;;;;;10.67;9.00;;;;;;;;5129309;27;9873;-73
2022/04/07 04:40:50;;;;;;;;;17.00;11.33;;;;;;;;5129074;27;23105;-73
2022/04/07 04:43:15;;;;;;;;;11.67;11.67;;;;;;;;5130588;27;21473;-73
2022/04/07 04:45:40;;;;;;;;;15.00;14.00;;;;;;;;5128965;27;11651;-76
2022/04/07 04:48:06;;;;;;;;;12.67;11.67;;;;;;;;5130101;27;11627;-74
2022/04/07 04:50:31;;;;;;;;;13.00;11.67;;;;;;;;5129981;27;11334;-76
2022/04/07 04:52:56;;;;;;;;;18.67;14.00;;;;;;;;5128191;27;11092;-74
2022/04/07 04:55:22;;;;;;;;;14.33;12.33;;;;;;;;5132297;27;11601;-73
2022/04/07 04:57:47;;;;;;;;;14.67;12.67;;;;;;;;5130465;27;11550;-74
2022/04/07 05:00:12;;;;;;;;;13.33;12.00;;;;;;;;5129265;27;8850;-73
2022/04/07 05:02:39;;;;;;;;;15.00;12.00;;;;;;;;5126923;27;11354;-74
2022/04/07 05:05:06;;;;;;;;;19.00;13.33;;;;;;;;5129915;27;8936;-73
2022/04/07 05:07:31;;;;;;;;;15.67;13.33;;;;;;;;5128908;27;11641;-74
2022/04/07 05:09:56;;;;;;;;;18.00;14.00;;;;;;;;5127200;27;8925;-74
2022/04/07 05:12:22;;;;;;;;;19.00;14.00;;;;;;;;5126962;27;11367;-74
2022/04/07 05:14:47;;;;;;;;;22.67;15.00;;;;;;;;5129147;27;9486;-73
2022/04/07 05:17:12;;;;;;;;;16.33;11.67;;;;;;;;5126904;27;12718;-73
2022/04/07 05:19:38;;;;;;;;;24.33;20.67;;;;;;;;5128284;27;13457;-72
2022/04/07 05:22:04;;;;;;;;;20.33;16.00;;;;;;;;5127919;27;10531;-74
2022/04/07 05:24:29;;;;;;;;;24.00;18.33;;;;;;;;5126693;27;12445;-78
2022/04/07 05:26:54;;;;;;;;;23.33;20.33;;;;;;;;5128399;27;11753;-72
2022/04/07 05:29:20;;;;;;;;;16.33;16.33;;;;;;;;5127190;27;11715;-74
2022/04/07 05:31:45;;;;;;;;;25.67;21.00;;;;;;;;5126893;27;11039;-72
2022/04/07 05:34:10;;;;;;;;;21.00;19.33;;;;;;;;5126906;27;14706;-73
2022/04/07 05:36:35;;;;;;;;;22.67;18.33;;;;;;;;5132917;27;13405;-75
2022/04/07 05:39:01;;;;;;;;;21.00;18.67;;;;;;;;5137762;27;10336;-73
2022/04/07 05:41:26;;;;;;;;;22.00;21.00;;;;;;;;5138225;27;11542;-76
2022/04/07 05:43:51;;;;;;;;;20.67;16.67;;;;;;;;5139039;27;12212;-78
2022/04/07 05:46:17;;;;;;;;;22.33;22.00;;;;;;;;5137135;27;15234;-74
2022/04/07 05:48:42;;;;;;;;;14.67;12.00;;;;;;;;5137830;27;12604;-76
2022/04/07 05:51:07;;;;;;;;;18.00;16.33;;;;;;;;5136960;27;12227;-76
2022/04/07 05:53:33;;;;;;;;;20.67;18.67;;;;;;;;5139007;27;11399;-76
2022/04/07 05:55:58;;;;;;;;;21.00;20.00;;;;;;;;5135824;27;13451;-75
2022/04/07 05:58:24;;;;;;;;;16.00;13.33;;;;;;;;5136567;27;12412;-74
2022/04/07 06:00:50;;;;;;;;;18.33;16.00;;;;;;;;5128644;27;13739;-74
2022/04/07 06:03:15;;;;;;;;;21.33;17.67;;;;;;;;5125989;27;11735;-73
2022/04/07 06:05:40;;;;;;;;;18.00;18.00;;;;;;;;5130416;27;13264;-75
2022/04/07 06:08:06;;;;;;;;;18.33;16.67;;;;;;;;5128772;27;15179;-75
2022/04/07 06:10:31;;;;;;;;;16.33;15.33;;;;;;;;5126825;27;10328;-75
2022/04/07 06:12:56;;;;;;;;;17.00;16.00;;;;;;;;5127313;27;11795;-83
2022/04/07 06:15:22;;;;;;;;;17.67;15.67;;;;;;;;5129023;27;12040;-82
2022/04/07 06:17:47;;;;;;;;;25.67;22.33;;;;;;;;5130302;27;12528;-78
2022/04/07 06:20:13;;;;;;;;;25.67;21.33;;;;;;;;5131718;27;13753;-82
2022/04/07 06:22:39;;;;;;;;;21.33;21.33;;;;;;;;5130315;27;9583;-79
2022/04/07 06:25:05;;;;;;;;;20.33;18.33;;;;;;;;5133497;27;9079;-75
2022/04/07 06:27:48;;;;;;;;;17.67;16.67;;;;;;;;5130495;27;9802;-81
2022/04/07 06:30:14;;;;;;;;;17.33;16.67;;;;;;;;5131901;27;15087;-77
2022/04/07 06:32:39;;;;;;;;;16.33;15.67;;;;;;;;5128102;27;8912;-77
2022/04/07 06:35:06;;;;;;;;;20.33;17.33;;;;;;;;5131751;27;9491;-74
2022/04/07 06:37:31;;;;;;;;;21.33;17.00;;;;;;;;5128651;27;13510;-76
2022/04/07 06:40:01;;;;;;;;;21.33;15.67;;;;;;;;5132316;27;11366;-77
2022/04/07 06:42:26;;;;;;;;;28.33;22.00;;;;;;;;5126331;27;9217;-77
2022/04/07 06:44:51;;;;;;;;;22.33;18.67;;;;;;;;5132529;27;14079;-75
2022/04/07 06:47:17;;;;;;;;;18.67;18.33;;;;;;;;5127868;27;14052;-76
2022/04/07 06:49:42;;;;;;;;;21.33;20.00;;;;;;;;5130033;27;13599;-76
2022/04/07 06:52:07;;;;;;;;;23.00;21.00;;;;;;;;5130600;27;13421;-75
2022/04/07 06:54:33;;;;;;;;;17.00;16.67;;;;;;;;5127294;27;11473;-75
2022/04/07 06:56:58;;;;;;;;;22.67;17.33;;;;;;;;5129785;27;13394;-74
2022/04/07 06:59:23;;;;;;;;;17.00;17.00;;;;;;;;5130984;27;13381;-73
2022/04/07 07:01:48;;;;;;;;;17.33;16.00;;;;;;;;5129190;27;13200;-73
2022/04/07 07:04:14;;;;;;;;;17.00;14.67;;;;;;;;5131689;27;9686;-73
2022/04/07 07:06:39;;;;;;;;;17.67;17.00;;;;;;;;5130213;27;12141;-72
2022/04/07 07:09:04;;;;;;;;;16.33;16.00;;;;;;;;5130891;27;10977;-72
2022/04/07 07:11:30;;;;;;;;;16.33;14.67;;;;;;;;5131374;27;10354;-74
2022/04/07 07:13:55;;;;;;;;;13.33;12.67;;;;;;;;5128852;27;9108;-77
2022/04/07 07:16:20;;;;;;;;;17.33;17.33;;;;;;;;5130808;27;9228;-76
2022/04/07 07:18:45;;;;;;;;;16.33;16.00;;;;;;;;5128722;27;13753;-77
2022/04/07 07:21:11;;;;;;;;;21.67;21.67;;;;;;;;5130075;27;14452;-76
2022/04/07 07:23:36;;;;;;;;;19.00;18.67;;;;;;;;5131158;27;13288;-74
2022/04/07 07:26:01;;;;;;;;;19.50;17.25;;;;;;;;5129267;27;12332;-75
2022/04/07 07:28:27;;;;;;;;;21.67;21.67;;;;;;;;5129659;27;10568;-74
2022/04/07 07:30:52;;;;;;;;;15.67;14.67;;;;;;;;5139786;27;13216;-73
2022/04/07 07:33:17;;;;;;;;;14.67;13.33;;;;;;;;5138934;27;13148;-73
2022/04/07 07:35:45;;;;;;;;;20.67;18.33;;;;;;;;5140569;27;11578;-73
2022/04/07 07:38:11;;;;;;;;;19.67;19.33;;;;;;;;5141171;27;10083;-73
2022/04/07 07:40:37;;;;;;;;;17.00;16.00;;;;;;;;5136239;27;11532;-73
2022/04/07 07:43:02;;;;;;;;;18.00;16.00;;;;;;;;5129781;27;11549;-73
2022/04/07 07:45:29;;;;;;;;;17.75;16.25;;;;;;;;5131085;27;8804;-73
2022/04/07 07:47:54;;;;;;;;;16.00;12.75;;;;;;;;5129015;27;12765;-73
2022/04/07 07:50:20;;;;;;;;;14.50;14.50;;;;;;;;5130980;27;11495;-73
2022/04/07 07:52:46;;;;;;;;;13.25;12.00;;;;;;;;5129497;27;11437;-73
2022/04/07 07:55:11;;;;;;;;;12.75;12.50;;;;;;;;5130293;27;13667;-74
2022/04/07 07:57:37;;;;;;;;;15.50;13.00;;;;;;;;5129584;27;11569;-74
2022/04/07 08:00:03;;;;;;;;;12.75;12.00;;;;;;;;5129220;27;11626;-74
2022/04/07 08:02:30;;;;;;;;;20.25;14.00;;;;;;;;5130519;27;10417;-74
2022/04/07 08:04:56;;;;;;;;;18.25;16.25;;;;;;;;5129548;27;12450;-74
2022/04/07 08:07:23;;;;;;;;;15.75;15.75;;;;;;;;5129304;27;13321;-75
2022/04/07 08:09:48;;;;;;;;;18.25;16.25;;;;;;;;5130361;27;10426;-73
2022/04/07 08:12:14;;;;;;;;;16.00;15.50;;;;;;;;5127062;27;11539;-72
2022/04/07 08:14:39;;;;;;;;;17.50;17.50;;;;;;;;5129788;27;11420;-75
2022/04/07 08:17:04;;;;;;;;;15.75;14.50;;;;;;;;5131151;27;10325;-75
2022/04/07 08:19:30;;;;;;;;;15.25;14.25;;;;;;;;5129052;27;10385;-74
2022/04/07 08:21:55;;;;;;;;;17.50;14.75;;;;;;;;5137658;27;8888;-75
2022/04/07 08:24:22;;;;;;;;;16.25;15.25;;;;;;;;5140732;27;10552;-73
2022/04/07 08:26:47;;;;;;;;;20.25;16.00;;;;;;;;5118562;27;10660;-73
2022/04/07 08:29:13;;;;;;;;;14.00;10.50;;;;;;;;5127084;27;13236;-74
2022/04/07 08:31:38;;;;;;;;;14.75;14.00;;;;;;;;5129719;27;13571;-74
2022/04/07 08:34:03;;;;;;;;;15.50;15.00;;;;;;;;5127135;27;11695;-74
2022/04/07 08:36:28;;;;;;;;;12.25;10.00;;;;;;;;5128284;27;10423;-74
2022/04/07 08:38:54;;;;;;;;;11.50;11.25;;;;;;;;5129820;27;10340;-73
2022/04/07 08:41:20;;;;;;;;;12.75;11.25;;;;;;;;5127772;27;11364;-75
2022/04/07 08:43:46;;;;;;;;;12.25;11.00;;;;;;;;5140198;27;9058;-74
2022/04/07 08:46:12;;;;;;;;;13.00;13.00;;;;;;;;5139855;27;11699;-73
2022/04/07 08:48:38;;;;;;;;;14.50;12.00;;;;;;;;5139838;27;10662;-73
2022/04/07 08:51:04;;;;;;;;;15.25;11.75;;;;;;;;5138803;27;11488;-74
2022/04/07 08:53:30;;;;;;;;;14.75;12.00;;;;;;;;5140294;27;12852;-71
2022/04/07 08:55:55;;;;;;;;;12.50;12.00;;;;;;;;5138077;27;11750;-74
2022/04/07 08:58:20;;;;;;;;;11.00;10.00;;;;;;;;5135914;27;11330;-72
2022/04/07 09:00:47;;;;;;;;;12.00;11.25;;;;;;;;5138236;27;11711;-71
2022/04/07 09:03:12;;;;;;;;;14.00;12.75;;;;;;;;5139917;27;11626;-72
2022/04/07 09:05:50;;;;;;;;;15.75;14.50;;;;;;;;5139892;27;11454;-72
2022/04/07 09:08:16;;;;;;;;;14.00;11.75;;;;;;;;5140047;27;11473;-72
2022/04/07 09:10:41;;;;;;;;;14.25;13.50;;;;;;;;5138494;27;12568;-72
2022/04/07 09:13:06;;;;;;;;;5.00;3.00;;;;;;;;5128228;27;10872;-71
2022/04/07 09:15:31;;;;;;;;;12.75;9.25;;;;;;;;5127431;27;22703;-72
2022/04/07 09:17:59;;;;;;;;;14.50;12.25;;;;;;;;5130792;27;22750;-72
2022/04/07 09:20:24;;;;;;;;;10.50;10.50;;;;;;;;5135067;27;22780;-71
2022/04/07 09:22:59;;;;;;;;;12.50;10.75;;;;;;;;5126815;27;12618;-71
2022/04/07 09:25:25;;;;;;;;;13.00;10.00;;;;;;;;5127590;27;11963;-71
2022/04/07 09:27:50;;;;;;;;;12.50;12.50;;;;;;;;5129410;27;11900;-71
2022/04/07 09:30:16;;;;;;;;;11.50;10.00;;;;;;;;5128411;27;11421;-71
2022/04/07 09:32:45;;;;;;;;;16.00;11.75;;;;;;;;5128275;27;11411;-72
2022/04/07 09:35:11;;;;;;;;;13.75;10.00;;;;;;;;5129867;27;11575;-71
2022/04/07 09:37:38;;;;;;;;;17.50;13.75;;;;;;;;5129586;27;11471;-71
2022/04/07 09:40:07;;;;;;;;;13.00;13.00;;;;;;;;5128604;27;11489;-71
2022/04/07 09:42:35;;;;;;;;;15.00;10.00;;;;;;;;5126241;27;11960;-71
2022/04/07 09:45:02;;;;;;;;;14.50;11.25;;;;;;;;5128303;27;11570;-70
2022/04/07 09:47:48;;;;;;;;;9.00;8.00;;;;;;;;5127054;27;11606;-70
2022/04/07 09:50:23;;;;;;;;;9.50;8.00;;;;;;;;5126332;27;22332;-71
2022/04/07 09:52:56;;;;;;;;;10.75;10.25;;;;;;;;5129528;27;11510;-70
2022/04/07 09:55:23;;;;;;;;;14.25;11.75;;;;;;;;5127392;27;22274;-71
2022/04/07 09:57:48;;;;;;;;;6.00;6.00;;;;;;;;5127106;27;11574;-71
2022/04/07 10:00:14;;;;;;;;;14.00;11.75;;;;;;;;5128746;27;22187;-71
2022/04/07 10:02:40;;;;;;;;;14.00;12.75;;;;;;;;5127617;27;22427;-71
2022/04/07 10:05:05;;;;;;;;;14.50;11.00;;;;;;;;5127050;27;8818;-71
2022/04/07 10:07:33;;;;;;;;;14.75;13.75;;;;;;;;5129374;27;11614;-71
2022/04/07 10:10:01;;;;;;;;;12.50;11.25;;;;;;;;5127558;27;11485;-71
2022/04/07 10:12:27;;;;;;;;;14.75;11.75;;;;;;;;5126534;27;11456;-71
2022/04/07 15:53:39;;;;;;;;;4.00;4.00;;;;;;;;5160069;27;79013;-78
2022/04/07 15:56:05;;;;;;;;;5.50;3.00;;;;;;;;5143249;27;22930;-80
2022/04/07 15:58:30;;;;;;;;;3.00;3.00;;;;;;;;5154473;27;10273;-78
2022/04/07 16:00:58;;;;;;;;;2.00;2.00;;;;;;;;5155782;27;8936;-77
2022/04/07 16:03:23;;;;;;;;;4.00;3.50;;;;;;;;5155382;27;8772;-77
2022/04/07 16:05:50;;;;;;;;;5.50;3.75;;;;;;;;5155673;27;11505;-81
2022/04/07 16:08:16;;;;;;;;;5.75;3.00;;;;;;;;5150415;27;12027;-76
2022/04/07 16:10:41;;;;;;;;;4.25;3.00;;;;;;;;5153682;27;11612;-77
2022/04/07 16:13:07;;;;;;;;;8.25;5.00;;;;;;;;5153222;27;8823;-83
2022/04/07 16:15:32;;;;;;;;;6.00;3.00;;;;;;;;5154665;27;9617;-81
2022/04/07 16:18:00;;;;;;;;;6.50;4.25;;;;;;;;5148291;27;12452;-78
2022/04/07 16:20:26;;;;;;;;;2.75;2.75;;;;;;;;5154536;27;10894;-79
2022/04/07 16:22:52;;;;;;;;;3.50;3.00;;;;;;;;5135481;27;11565;-80
2022/04/07 16:25:19;;;;;;;;;5.00;3.00;;;;;;;;5135613;27;12154;-79
2022/04/07 16:27:45;;;;;;;;;3.75;3.00;;;;;;;;5136550;27;8872;-79
2022/04/07 16:30:16;;;;;;;;;4.00;3.25;;;;;;;;5144967;27;11532;-80
2022/04/07 16:32:42;;;;;;;;;3.50;3.50;;;;;;;;5151423;27;13455;-80
2022/04/07 16:35:07;;;;;;;;;4.00;3.75;;;;;;;;5154781;27;11582;-76
2022/04/07 16:37:34;;;;;;;;;4.50;4.50;;;;;;;;5154792;27;11467;-75
2022/04/07 16:40:00;;;;;;;;;4.25;4.00;;;;;;;;5154653;27;10623;-75
2022/04/07 16:42:25;;;;;;;;;3.25;3.25;;;;;;;;5155254;27;11472;-76
2022/04/07 16:44:51;;;;;;;;;4.00;2.75;;;;;;;;5153039;27;11498;-73
2022/04/07 16:47:16;;;;;;;;;5.25;4.00;;;;;;;;5154708;27;10339;-76
2022/04/07 16:49:41;;;;;;;;;4.50;3.75;;;;;;;;5154699;27;11450;-77
2022/04/07 16:52:07;;;;;;;;;6.25;4.00;;;;;;;;5154289;27;11491;-78
2022/04/07 16:54:32;;;;;;;;;4.75;4.00;;;;;;;;5151556;27;13025;-77
2022/04/07 16:56:57;;;;;;;;;6.00;2.75;;;;;;;;5155444;27;8800;-74
2022/04/07 16:59:23;;;;;;;;;6.00;4.50;;;;;;;;5155345;27;11580;-76
2022/04/07 17:01:48;;;;;;;;;4.25;4.00;;;;;;;;5155689;27;8906;-77
2022/04/07 17:04:14;;;;;;;;;5.00;3.25;;;;;;;;5145807;27;11533;-76
2022/04/07 17:06:40;;;;;;;;;10.00;4.00;;;;;;;;5141759;27;11928;-79
2022/04/07 17:09:05;;;;;;;;;5.50;2.75;;;;;;;;5140832;27;22683;-76
2022/04/07 17:11:30;;;;;;;;;5.50;4.50;;;;;;;;5139650;27;23594;-80
2022/04/07 17:13:56;;;;;;;;;4.00;4.00;;;;;;;;5142144;27;8911;-79
2022/04/07 17:16:23;;;;;;;;;5.25;4.50;;;;;;;;5141991;27;11578;-77
2022/04/07 17:18:48;;;;;;;;;4.00;4.00;;;;;;;;5141507;27;11386;-79
2022/04/07 17:21:14;;;;;;;;;6.00;4.00;;;;;;;;5141192;27;12263;-80
2022/04/07 17:23:39;;;;;;;;;8.75;4.00;;;;;;;;5141801;27;8882;-75
2022/04/07 17:26:04;;;;;;;;;6.25;3.50;;;;;;;;5139748;27;8807;-76
2022/04/07 17:28:30;;;;;;;;;5.25;5.25;;;;;;;;5141883;27;11711;-81
2022/04/07 17:30:58;;;;;;;;;5.25;3.00;;;;;;;;5141615;27;11453;-77
2022/04/07 17:33:23;;;;;;;;;8.00;6.00;;;;;;;;5142254;27;8831;-79
2022/04/07 17:35:49;;;;;;;;;7.50;4.25;;;;;;;;5140202;27;12120;-78
2022/04/07 17:38:14;;;;;;;;;7.00;4.00;;;;;;;;5141146;27;11657;-83
2022/04/07 17:40:42;;;;;;;;;5.25;3.25;;;;;;;;5141628;27;8780;-84
2022/04/07 17:43:12;;;;;;;;;5.50;4.25;;;;;;;;5141929;27;11610;-83
2022/04/07 17:45:37;;;;;;;;;7.75;3.00;;;;;;;;5140440;27;11445;-79
2022/04/07 17:48:03;;;;;;;;;8.75;6.25;;;;;;;;5139952;27;13542;-80
2022/04/07 17:50:28;;;;;;;;;4.00;4.00;;;;;;;;5141504;27;11569;-80
2022/04/07 17:52:53;;;;;;;;;4.25;3.50;;;;;;;;5141429;27;11888;-77
2022/04/07 17:55:19;;;;;;;;;7.50;6.50;;;;;;;;5139051;27;13588;-78
2022/04/07 17:57:44;;;;;;;;;4.75;2.75;;;;;;;;5136996;27;12359;-80
2022/04/07 18:00:14;;;;;;;;;11.25;8.50;;;;;;;;5134100;27;11521;-79
2022/04/07 18:02:40;;;;;;;;;6.75;4.75;;;;;;;;5122857;27;22378;-78
2022/04/07 18:05:08;;;;;;;;;9.25;6.50;;;;;;;;5127580;27;23414;-81
2022/04/07 18:07:34;;;;;;;;;7.75;7.00;;;;;;;;5128721;27;11518;-77
2022/04/07 18:09:59;;;;;;;;;2.50;2.50;;;;;;;;5133848;27;11433;-80
2022/04/07 18:12:24;;;;;;;;;5.25;5.25;;;;;;;;5128214;27;11342;-77
2022/04/07 18:14:50;;;;;;;;;11.50;6.00;;;;;;;;5129146;27;11343;-82
2022/04/07 18:17:15;;;;;;;;;8.25;6.75;;;;;;;;5126751;27;21894;-79
2022/04/07 18:19:40;;;;;;;;;7.50;4.00;;;;;;;;5130755;27;22788;-81
2022/04/07 18:22:05;;;;;;;;;10.00;3.50;;;;;;;;5141002;27;11417;-80
2022/04/07 18:24:31;;;;;;;;;2.75;1.75;;;;;;;;5134074;27;22605;-81
2022/04/07 18:26:57;;;;;;;;;12.75;10.00;;;;;;;;5129737;27;23194;-80
2022/04/07 18:29:24;;;;;;;;;5.00;5.00;;;;;;;;5127577;27;22264;-80
2022/04/07 18:31:50;;;;;;;;;8.50;4.25;;;;;;;;5126508;27;24863;-79
2022/04/07 18:34:15;;;;;;;;;6.50;3.75;;;;;;;;5138707;27;11531;-83
2022/04/07 18:36:40;;;;;;;;;3.00;3.00;;;;;;;;5139609;27;11583;-80
2022/04/07 18:39:06;;;;;;;;;9.00;4.50;;;;;;;;5137486;27;11527;-80
2022/04/07 18:41:31;;;;;;;;;6.50;4.75;;;;;;;;5139622;27;11492;-83
2022/04/07 18:43:57;;;;;;;;;5.50;3.25;;;;;;;;5149788;27;11309;-80
2022/04/07 18:46:23;;;;;;;;;2.50;2.25;;;;;;;;5143795;27;10258;-79
2022/04/07 18:48:48;;;;;;;;;7.25;5.25;;;;;;;;5140030;27;8989;-78
2022/04/07 18:51:13;;;;;;;;;7.75;4.00;;;;;;;;5139850;27;10333;-80
2022/04/07 18:53:38;;;;;;;;;8.00;3.25;;;;;;;;5139782;27;11633;-79
2022/04/07 18:56:07;;;;;;;;;3.50;3.00;;;;;;;;5140863;27;11286;-79
2022/04/07 18:58:32;;;;;;;;;8.00;4.25;;;;;;;;5140831;27;12011;-79
2022/04/07 19:01:01;;;;;;;;;9.00;4.50;;;;;;;;5138492;27;11753;-79
2022/04/07 19:03:26;;;;;;;;;10.75;4.00;;;;;;;;5022502;27;11747;-81
2022/04/07 19:05:52;;;;;;;;;4.25;4.00;;;;;;;;5023275;28;21826;-80
2022/04/07 19:08:19;;;;;;;;;8.25;3.25;;;;;;;;5024177;28;16645;-73
2022/04/07 19:10:44;;;;;;;;;7.00;4.25;;;;;;;;5022227;28;11474;-73
2022/04/07 19:13:10;;;;;;;;;8.25;4.25;;;;;;;;5022506;28;11424;-73
2022/04/07 19:15:37;;;;;;;;;5.00;5.00;;;;;;;;5024616;28;9021;-73
2022/04/07 19:18:02;;;;;;;;;7.50;3.75;;;;;;;;5022906;28;11743;-73
2022/04/07 19:20:27;;;;;;;;;4.00;4.00;;;;;;;;5041367;22;11530;-79
2022/04/07 19:22:58;;;;;;;;;5.25;3.25;;;;;;;;5035095;28;11301;-80
2022/04/07 19:25:24;;;;;;;;;3.00;3.00;;;;;;;;5019208;28;11751;-80
2022/04/07 19:27:49;;;;;;;;;61.33;45.67;;;;;;;;5018272;28;12615;-78
2022/04/07 19:30:17;;;;;;;;;8.00;4.00;;;;;;;;5018371;28;22755;-80
2022/04/07 19:32:42;;;;;;;;;22.75;19.00;;;;;;;;5036241;28;22889;-79
2022/04/07 19:35:07;;;;;;;;;7.00;4.50;;;;;;;;5036558;28;23904;-80
2022/04/07 19:37:35;;;;;;;;;2.75;2.25;;;;;;;;5014985;28;23656;-80
2022/04/07 19:40:00;;;;;;;;;5.50;2.75;;;;;;;;5017548;28;15090;-80
2022/04/07 19:42:28;;;;;;;;;7.75;4.50;;;;;;;;5037318;28;11471;-79
2022/04/07 19:44:54;;;;;;;;;3.50;2.00;;;;;;;;5037804;28;11591;-74
2022/04/07 19:47:23;;;;;;;;;8.75;4.00;;;;;;;;5037581;28;11753;-75
2022/04/07 20:24:35;;;;;;;;;4.00;2.50;;;;;;;;5040539;27;3642895;-76
2022/04/07 20:27:01;;;;;;;;;2.50;2.00;;;;;;;;5156260;27;20616;-76
2022/04/07 20:29:28;;;;;;;;;2.50;2.00;;;;;;;;5138185;27;14036;-76
2022/04/07 20:31:54;;;;;;;;;0.75;0.25;;;;;;;;5157700;27;8806;-74
2022/04/07 20:34:19;;;;;;;;;2.00;2.00;;;;;;;;5156564;27;12367;-75